Chrisney, IN (47611)

6:19 AM CDT on July 30, 2016 (GMT -0500)
Tennyson Indiana | | Change Station

Elev 427 ft 38.08 °N, 87.12 °W | Updated 8 seconds ago

Overcast
Overcast
70.7 °F
Feels Like 70.7 °F
N
0.0
Wind Variable Wind from NNE
Gusts 0.0 mph

Today
High -- | Low -- °F
--% Chance of Precip.
Yesterday
High -- | Low -- °F
Precip. -- in
Pressure 29.96 in
Visibility 0.5 miles
Clouds Overcast 300 ft
Dew Point 70 °F
Humidity 99%
Rainfall 0.04 in
Snow Depth Not available.
5:49 AM 7:58 PM
Waning Crescent, 14% visible
METAR KHNB 301115Z 19003KT 1/2SM OVC003 22/20 A2996 RMK AO1
Pressure 29.96 in
Visibility 0.5 miles
Clouds Overcast 300 ft
Dew Point 70 °F
Humidity 99%
Rainfall 0.04 in
Snow Depth Not available.
5:49 AM 7:58 PM
Waning Crescent, 14% visible
METAR KHNB 301115Z 19003KT 1/2SM OVC003 22/20 A2996 RMK AO1

10-Day Weather Forecast

Almanac

Astronomy

Jul. 30, 2016 Rise Set
Actual Time
Civil Twilight
Nautical Twilight
Astronomical Twilight
Moon
Length of Visible Light
Length of Day
Tomorrow will be .
, % of the Moon is Illuminated

Today's Extremes

State Highs State Lows

Community

WunderPhotos

Upload Photos

1,928,530 photos uploaded!

WunderBlog® & News

Nearby

Air Quality

  Air Quality AQ Index Pollutant
Not available.

Snow Depth

Station Depth Elevation

Earthquake Activity

City Distance Mag. Time & Date
Minimum magnitude displayed is 2.5.

Coastal Water Temperatures

Place Temperature

Stations

Nearby Weather Stations

Station Location Temp. Windchill Dew Point Humidity Wind Precip. Elev Updated Type
                   

Watches & Warnings

There are currently no watches in effect.